sensor_id;sensor_type;location;lat;lon;timestamp;pressure;altitude;pressure_sealevel;temperature;humidity
11223;BME280;5668;52.012;8.724;2022-12-29T00:01:00;98915.41;;;11.46;95.36
11223;BME280;5668;52.012;8.724;2022-12-29T00:03:27;98907.63;;;11.46;95.56
11223;BME280;5668;52.012;8.724;2022-12-29T00:05:55;98916.09;;;11.48;95.45
11223;BME280;5668;52.012;8.724;2022-12-29T00:08:23;98908.81;;;11.51;95.74
11223;BME280;5668;52.012;8.724;2022-12-29T00:11:05;98902.63;;;11.52;95.96
11223;BME280;5668;52.012;8.724;2022-12-29T00:13:33;98908.38;;;11.56;95.99
11223;BME280;5668;52.012;8.724;2022-12-29T00:16:20;98902.22;;;11.57;95.60
11223;BME280;5668;52.012;8.724;2022-12-29T00:18:47;98896.84;;;11.58;96.06
11223;BME280;5668;52.012;8.724;2022-12-29T00:21:16;98898.13;;;11.54;96.46
11223;BME280;5668;52.012;8.724;2022-12-29T00:24:01;98897.97;;;11.56;97.21
11223;BME280;5668;52.012;8.724;2022-12-29T00:26:50;98890.16;;;11.56;97.10
11223;BME280;5668;52.012;8.724;2022-12-29T00:29:38;98890.31;;;11.54;97.20
11223;BME280;5668;52.012;8.724;2022-12-29T00:32:24;98860.19;;;11.52;97.22
11223;BME280;5668;52.012;8.724;2022-12-29T00:35:11;98869.63;;;11.53;97.50
11223;BME280;5668;52.012;8.724;2022-12-29T00:37:43;98848.00;;;11.52;97.14
11223;BME280;5668;52.012;8.724;2022-12-29T00:40:28;98850.31;;;11.55;97.08
11223;BME280;5668;52.012;8.724;2022-12-29T00:43:13;98846.75;;;11.56;97.78
11223;BME280;5668;52.012;8.724;2022-12-29T00:45:58;98842.66;;;11.54;97.96
11223;BME280;5668;52.012;8.724;2022-12-29T00:48:26;98853.59;;;11.57;97.17
11223;BME280;5668;52.012;8.724;2022-12-29T00:51:11;98831.38;;;11.63;96.96
11223;BME280;5668;52.012;8.724;2022-12-29T00:53:38;98847.66;;;11.65;97.31
11223;BME280;5668;52.012;8.724;2022-12-29T00:56:05;98849.44;;;11.64;97.04
11223;BME280;5668;52.012;8.724;2022-12-29T00:58:33;98830.75;;;11.69;97.00
11223;BME280;5668;52.012;8.724;2022-12-29T01:01:04;98840.19;;;11.70;96.70
11223;BME280;5668;52.012;8.724;2022-12-29T01:03:33;98837.59;;;11.70;96.90
11223;BME280;5668;52.012;8.724;2022-12-29T01:06:02;98830.47;;;11.72;97.00
11223;BME280;5668;52.012;8.724;2022-12-29T01:08:29;98831.81;;;11.76;96.35
11223;BME280;5668;52.012;8.724;2022-12-29T01:11:00;98820.28;;;11.79;96.83
11223;BME280;5668;52.012;8.724;2022-12-29T01:13:26;98824.53;;;11.80;96.13
11223;BME280;5668;52.012;8.724;2022-12-29T01:16:00;98816.25;;;11.84;96.21
11223;BME280;5668;52.012;8.724;2022-12-29T01:18:27;98806.31;;;11.80;96.10
11223;BME280;5668;52.012;8.724;2022-12-29T01:21:03;98813.13;;;11.81;96.05
11223;BME280;5668;52.012;8.724;2022-12-29T01:23:31;98801.59;;;11.83;96.39
11223;BME280;5668;52.012;8.724;2022-12-29T01:26:12;98806.00;;;11.83;96.20
11223;BME280;5668;52.012;8.724;2022-12-29T01:28:39;98804.06;;;11.85;95.92
11223;BME280;5668;52.012;8.724;2022-12-29T01:31:08;98789.94;;;11.87;96.29
11223;BME280;5668;52.012;8.724;2022-12-29T01:33:35;98790.59;;;11.89;96.25
11223;BME280;5668;52.012;8.724;2022-12-29T01:36:05;98788.94;;;11.88;96.28
11223;BME280;5668;52.012;8.724;2022-12-29T01:38:33;98785.09;;;11.92;96.71
11223;BME280;5668;52.012;8.724;2022-12-29T01:41:01;98788.03;;;11.97;96.38
11223;BME280;5668;52.012;8.724;2022-12-29T01:43:39;98783.63;;;11.98;96.39
11223;BME280;5668;52.012;8.724;2022-12-29T01:46:15;98792.94;;;12.00;96.63
11223;BME280;5668;52.012;8.724;2022-12-29T01:48:45;98774.53;;;11.94;98.54
11223;BME280;5668;52.012;8.724;2022-12-29T01:51:17;98778.91;;;11.93;98.16
11223;BME280;5668;52.012;8.724;2022-12-29T01:53:48;98774.53;;;11.94;98.58
11223;BME280;5668;52.012;8.724;2022-12-29T01:56:17;98771.75;;;11.95;98.19
11223;BME280;5668;52.012;8.724;2022-12-29T01:58:48;98774.19;;;11.97;98.15
11223;BME280;5668;52.012;8.724;2022-12-29T02:01:20;98765.88;;;11.93;98.24
11223;BME280;5668;52.012;8.724;2022-12-29T02:03:48;98760.69;;;11.93;98.44
11223;BME280;5668;52.012;8.724;2022-12-29T02:06:25;98764.31;;;12.00;98.20
11223;BME280;5668;52.012;8.724;2022-12-29T02:08:56;98764.31;;;12.00;97.64
11223;BME280;5668;52.012;8.724;2022-12-29T02:11:28;98776.34;;;12.01;98.18
11223;BME280;5668;52.012;8.724;2022-12-29T02:13:56;98778.28;;;11.99;98.68
11223;BME280;5668;52.012;8.724;2022-12-29T02:16:38;98766.75;;;12.02;99.26
11223;BME280;5668;52.012;8.724;2022-12-29T02:22:18;98767.72;;;12.01;99.72
11223;BME280;5668;52.012;8.724;2022-12-29T02:25:14;98758.44;;;11.98;99.91
11223;BME280;5668;52.012;8.724;2022-12-29T02:28:09;98769.47;;;11.92;100.00
11223;BME280;5668;52.012;8.724;2022-12-29T02:31:04;98776.31;;;11.93;100.00
11223;BME280;5668;52.012;8.724;2022-12-29T02:33:44;98773.56;;;11.95;100.00
11223;BME280;5668;52.012;8.724;2022-12-29T02:36:28;98753.38;;;11.97;100.00
11223;BME280;5668;52.012;8.724;2022-12-29T02:39:05;98750.91;;;11.95;100.00
11223;BME280;5668;52.012;8.724;2022-12-29T02:41:42;98752.56;;;11.96;100.00
11223;BME280;5668;52.012;8.724;2022-12-29T02:44:17;98755.81;;;11.98;100.00
11223;BME280;5668;52.012;8.724;2022-12-29T02:46:53;98744.44;;;11.99;100.00
11223;BME280;5668;52.012;8.724;2022-12-29T02:49:27;98752.25;;;11.99;100.00
11223;BME280;5668;52.012;8.724;2022-12-29T02:52:01;98746.28;;;12.07;99.84
11223;BME280;5668;52.012;8.724;2022-12-29T02:54:30;98737.97;;;12.12;99.33
11223;BME280;5668;52.012;8.724;2022-12-29T02:57:26;98724.81;;;12.13;98.06
11223;BME280;5668;52.012;8.724;2022-12-29T03:06:10;98728.28;;;12.22;97.43
11223;BME280;5668;52.012;8.724;2022-12-29T03:09:01;98710.19;;;12.20;98.02
11223;BME280;5668;52.012;8.724;2022-12-29T03:11:41;98699.78;;;12.20;97.53
11223;BME280;5668;52.012;8.724;2022-12-29T03:14:33;98705.16;;;12.27;97.24
11223;BME280;5668;52.012;8.724;2022-12-29T03:17:27;98719.81;;;12.28;96.58
11223;BME280;5668;52.012;8.724;2022-12-29T03:20:01;98707.47;;;12.30;97.14
11223;BME280;5668;52.012;8.724;2022-12-29T03:22:36;98706.50;;;12.31;97.10
11223;BME280;5668;52.012;8.724;2022-12-29T03:25:43;98700.78;;;12.27;97.03
11223;BME280;5668;52.012;8.724;2022-12-29T03:28:18;98698.03;;;12.29;96.26
11223;BME280;5668;52.012;8.724;2022-12-29T03:30:48;98708.78;;;12.34;96.88
11223;BME280;5668;52.012;8.724;2022-12-29T03:33:22;98704.91;;;12.38;95.85
11223;BME280;5668;52.012;8.724;2022-12-29T03:35:53;98701.31;;;12.39;95.91
11223;BME280;5668;52.012;8.724;2022-12-29T03:38:27;98701.94;;;12.41;95.68
11223;BME280;5668;52.012;8.724;2022-12-29T03:40:59;98700.84;;;12.44;95.25
11223;BME280;5668;52.012;8.724;2022-12-29T03:43:27;98692.88;;;12.45;95.15
11223;BME280;5668;52.012;8.724;2022-12-29T03:45:55;98707.38;;;12.48;94.92
11223;BME280;5668;52.012;8.724;2022-12-29T03:48:22;98707.19;;;12.49;94.14
11223;BME280;5668;52.012;8.724;2022-12-29T03:50:49;98686.84;;;12.45;94.26
11223;BME280;5668;52.012;8.724;2022-12-29T03:53:18;98685.03;;;12.45;94.03
11223;BME280;5668;52.012;8.724;2022-12-29T03:55:46;98684.06;;;12.46;93.24
11223;BME280;5668;52.012;8.724;2022-12-29T03:58:13;98673.66;;;12.46;93.18
11223;BME280;5668;52.012;8.724;2022-12-29T04:00:40;98690.25;;;12.45;93.24
11223;BME280;5668;52.012;8.724;2022-12-29T04:03:08;98688.47;;;12.46;93.15
11223;BME280;5668;52.012;8.724;2022-12-29T04:05:35;98690.41;;;12.44;92.70
11223;BME280;5668;52.012;8.724;2022-12-29T04:08:02;98686.84;;;12.45;92.48
11223;BME280;5668;52.012;8.724;2022-12-29T04:13:53;98695.78;;;12.50;91.72
11223;BME280;5668;52.012;8.724;2022-12-29T04:16:20;98693.69;;;12.54;91.90
11223;BME280;5668;52.012;8.724;2022-12-29T04:18:47;98681.81;;;12.51;91.80
11223;BME280;5668;52.012;8.724;2022-12-29T04:21:15;98685.38;;;12.50;91.06
11223;BME280;5668;52.012;8.724;2022-12-29T04:23:43;98695.97;;;12.57;91.02
11223;BME280;5668;52.012;8.724;2022-12-29T04:26:11;98697.13;;;12.54;90.88
11223;BME280;5668;52.012;8.724;2022-12-29T04:28:38;98704.75;;;12.56;90.58
11223;BME280;5668;52.012;8.724;2022-12-29T04:31:07;98698.75;;;12.55;90.72
11223;BME280;5668;52.012;8.724;2022-12-29T04:33:34;98700.34;;;12.48;90.90
11223;BME280;5668;52.012;8.724;2022-12-29T04:36:02;98689.47;;;12.53;91.59
11223;BME280;5668;52.012;8.724;2022-12-29T04:38:29;98683.44;;;12.52;91.48
11223;BME280;5668;52.012;8.724;2022-12-29T04:41:01;98687.66;;;12.53;92.34
11223;BME280;5668;52.012;8.724;2022-12-29T04:43:30;98687.81;;;12.52;91.15
11223;BME280;5668;52.012;8.724;2022-12-29T04:45:58;98686.84;;;12.53;91.60
11223;BME280;5668;52.012;8.724;2022-12-29T04:48:27;98680.16;;;12.50;91.43
11223;BME280;5668;52.012;8.724;2022-12-29T04:50:55;98684.56;;;12.50;91.55
11223;BME280;5668;52.012;8.724;2022-12-29T04:53:22;98681.13;;;12.49;91.75
11223;BME280;5668;52.012;8.724;2022-12-29T04:59:11;98672.31;;;12.42;93.06
11223;BME280;5668;52.012;8.724;2022-12-29T05:01:39;98677.91;;;12.47;92.96
11223;BME280;5668;52.012;8.724;2022-12-29T05:04:07;98681.13;;;12.49;93.20
11223;BME280;5668;52.012;8.724;2022-12-29T05:06:35;98675.28;;;12.47;93.42
11223;BME280;5668;52.012;8.724;2022-12-29T05:09:02;98649.22;;;12.47;93.61
11223;BME280;5668;52.012;8.724;2022-12-29T05:11:29;98668.09;;;12.41;93.95
11223;BME280;5668;52.012;8.724;2022-12-29T05:13:56;98680.97;;;12.43;94.16
11223;BME280;5668;52.012;8.724;2022-12-29T05:16:24;98667.44;;;12.39;94.03
11223;BME280;5668;52.012;8.724;2022-12-29T05:18:51;98666.63;;;12.38;94.26
11223;BME280;5668;52.012;8.724;2022-12-29T05:21:22;98664.66;;;12.40;94.67
11223;BME280;5668;52.012;8.724;2022-12-29T05:23:49;98662.25;;;12.39;94.54
11223;BME280;5668;52.012;8.724;2022-12-29T05:26:16;98673.47;;;12.39;95.08
11223;BME280;5668;52.012;8.724;2022-12-29T05:28:46;98654.44;;;12.39;95.57
11223;BME280;5668;52.012;8.724;2022-12-29T05:31:13;98663.88;;;12.40;95.12
11223;BME280;5668;52.012;8.724;2022-12-29T05:33:40;98650.50;;;12.35;95.92
11223;BME280;5668;52.012;8.724;2022-12-29T05:36:12;98638.78;;;12.39;95.97
11223;BME280;5668;52.012;8.724;2022-12-29T05:38:40;98644.16;;;12.37;95.33
11223;BME280;5668;52.012;8.724;2022-12-29T05:41:08;98638.47;;;12.42;94.90
11223;BME280;5668;52.012;8.724;2022-12-29T05:43:35;98632.13;;;12.45;95.04
11223;BME280;5668;52.012;8.724;2022-12-29T05:46:06;98630.34;;;12.45;94.32
11223;BME280;5668;52.012;8.724;2022-12-29T05:48:33;98640.59;;;12.47;94.21
11223;BME280;5668;52.012;8.724;2022-12-29T05:51:00;98630.34;;;12.45;94.22
11223;BME280;5668;52.012;8.724;2022-12-29T05:53:28;98633.59;;;12.47;93.76
11223;BME280;5668;52.012;8.724;2022-12-29T05:55:56;98640.75;;;12.45;94.26
11223;BME280;5668;52.012;8.724;2022-12-29T05:58:23;98639.28;;;12.51;94.29
11223;BME280;5668;52.012;8.724;2022-12-29T06:00:51;98645.81;;;12.55;93.58
11223;BME280;5668;52.012;8.724;2022-12-29T06:03:19;98646.31;;;12.58;93.57
11223;BME280;5668;52.012;8.724;2022-12-29T06:05:47;98654.78;;;12.60;93.44
11223;BME280;5668;52.012;8.724;2022-12-29T06:08:14;98648.25;;;12.56;93.48
11223;BME280;5668;52.012;8.724;2022-12-29T06:10:42;98646.31;;;12.58;93.25
11223;BME280;5668;52.012;8.724;2022-12-29T06:13:10;98646.16;;;12.60;93.55
11223;BME280;5668;52.012;8.724;2022-12-29T06:15:37;98652.84;;;12.62;92.69
11223;BME280;5668;52.012;8.724;2022-12-29T06:18:05;98642.41;;;12.62;93.16
11223;BME280;5668;52.012;8.724;2022-12-29T06:20:32;98638.03;;;12.63;92.93
11223;BME280;5668;52.012;8.724;2022-12-29T06:22:59;98646.97;;;12.68;92.35
11223;BME280;5668;52.012;8.724;2022-12-29T06:25:30;98633.44;;;12.65;92.60
11223;BME280;5668;52.012;8.724;2022-12-29T06:27:58;98640.28;;;12.66;92.24
11223;BME280;5668;52.012;8.724;2022-12-29T06:30:29;98644.38;;;12.68;92.47
11223;BME280;5668;52.012;8.724;2022-12-29T06:32:57;98648.91;;;12.66;92.09
11223;BME280;5668;52.012;8.724;2022-12-29T06:35:24;98658.69;;;12.64;91.83
11223;BME280;5668;52.012;8.724;2022-12-29T06:37:51;98651.53;;;12.66;91.19
11223;BME280;5668;52.012;8.724;2022-12-29T06:40:19;98656.44;;;12.69;90.94
11223;BME280;5668;52.012;8.724;2022-12-29T06:42:47;98645.34;;;12.67;91.35
11223;BME280;5668;52.012;8.724;2022-12-29T06:45:15;98667.97;;;12.67;90.27
11223;BME280;5668;52.012;8.724;2022-12-29T06:47:44;98679.06;;;12.69;90.03
11223;BME280;5668;52.012;8.724;2022-12-29T06:50:13;98691.28;;;12.60;90.72
11223;BME280;5668;52.012;8.724;2022-12-29T06:52:43;98700.38;;;12.56;91.45
11223;BME280;5668;52.012;8.724;2022-12-29T06:55:13;98704.25;;;12.44;92.66
11223;BME280;5668;52.012;8.724;2022-12-29T06:57:40;98706.84;;;12.44;92.73
11223;BME280;5668;52.012;8.724;2022-12-29T07:00:08;98709.75;;;12.41;94.13
11223;BME280;5668;52.012;8.724;2022-12-29T07:02:36;98705.22;;;12.43;94.26
11223;BME280;5668;52.012;8.724;2022-12-29T07:05:06;98727.66;;;12.36;94.76
11223;BME280;5668;52.012;8.724;2022-12-29T07:07:35;98732.41;;;12.32;95.04
11223;BME280;5668;52.012;8.724;2022-12-29T07:10:03;98735.78;;;12.33;94.36
11223;BME280;5668;52.012;8.724;2022-12-29T07:12:32;98736.31;;;12.36;94.65
11223;BME280;5668;52.012;8.724;2022-12-29T07:14:59;98735.19;;;12.39;94.55
11223;BME280;5668;52.012;8.724;2022-12-29T07:17:26;98731.59;;;12.40;93.85
11223;BME280;5668;52.012;8.724;2022-12-29T07:19:54;98749.47;;;12.35;93.67
11223;BME280;5668;52.012;8.724;2022-12-29T07:22:24;98722.63;;;12.34;93.51
11223;BME280;5668;52.012;8.724;2022-12-29T07:24:51;98712.72;;;12.38;92.82
11223;BME280;5668;52.012;8.724;2022-12-29T07:27:18;98727.03;;;12.42;92.39
11223;BME280;5668;52.012;8.724;2022-12-29T07:29:47;98727.84;;;12.43;92.24
11223;BME280;5668;52.012;8.724;2022-12-29T07:32:14;98742.19;;;12.38;91.91
11223;BME280;5668;52.012;8.724;2022-12-29T07:34:42;98739.72;;;12.37;92.86
11223;BME280;5668;52.012;8.724;2022-12-29T07:37:11;98752.75;;;12.37;93.29
11223;BME280;5668;52.012;8.724;2022-12-29T07:39:41;98784.00;;;12.37;93.64
11223;BME280;5668;52.012;8.724;2022-12-29T07:42:09;98780.88;;;12.33;95.05
11223;BME280;5668;52.012;8.724;2022-12-29T07:44:36;98772.88;;;12.27;95.46
11223;BME280;5668;52.012;8.724;2022-12-29T07:47:03;98766.38;;;12.23;96.16
11223;BME280;5668;52.012;8.724;2022-12-29T07:49:31;98769.28;;;12.20;96.86
11223;BME280;5668;52.012;8.724;2022-12-29T07:51:58;98772.50;;;12.14;96.66
11223;BME280;5668;52.012;8.724;2022-12-29T07:54:25;98778.81;;;12.11;96.52
11223;BME280;5668;52.012;8.724;2022-12-29T07:56:54;98781.09;;;12.06;96.55
11223;BME280;5668;52.012;8.724;2022-12-29T07:59:21;98783.69;;;12.06;96.54
11223;BME280;5668;52.012;8.724;2022-12-29T08:01:48;98779.94;;;12.00;96.72
11223;BME280;5668;52.012;8.724;2022-12-29T08:04:16;98780.59;;;12.02;96.32
11223;BME280;5668;52.012;8.724;2022-12-29T08:06:43;98792.94;;;12.00;95.57
11223;BME280;5668;52.012;8.724;2022-12-29T08:09:14;98792.28;;;11.98;95.93
11223;BME280;5668;52.012;8.724;2022-12-29T08:11:42;98788.03;;;11.97;95.80
11223;BME280;5668;52.012;8.724;2022-12-29T08:14:11;98797.63;;;11.97;95.79
11223;BME280;5668;52.012;8.724;2022-12-29T08:16:38;98798.78;;;11.94;95.78
11223;BME280;5668;52.012;8.724;2022-12-29T08:19:05;98794.69;;;11.92;95.56
11223;BME280;5668;52.012;8.724;2022-12-29T08:21:32;98798.25;;;11.91;95.76
11223;BME280;5668;52.012;8.724;2022-12-29T08:24:00;98814.69;;;11.91;96.40
11223;BME280;5668;52.012;8.724;2022-12-29T08:26:27;98823.16;;;11.93;96.38
11223;BME280;5668;52.012;8.724;2022-12-29T08:28:55;98807.22;;;11.96;96.16
11223;BME280;5668;52.012;8.724;2022-12-29T08:31:23;98834.06;;;11.97;95.61
11223;BME280;5668;52.012;8.724;2022-12-29T08:33:51;98831.31;;;11.98;96.59
11223;BME280;5668;52.012;8.724;2022-12-29T08:36:18;98829.69;;;11.97;96.18
11223;BME280;5668;52.012;8.724;2022-12-29T08:38:45;98828.88;;;11.97;96.87
11223;BME280;5668;52.012;8.724;2022-12-29T08:41:12;98810.00;;;11.95;96.53
11223;BME280;5668;52.012;8.724;2022-12-29T08:43:40;98809.47;;;11.91;97.15
11223;BME280;5668;52.012;8.724;2022-12-29T08:46:07;98814.16;;;11.88;97.51
11223;BME280;5668;52.012;8.724;2022-12-29T08:48:35;98816.41;;;11.83;97.63
11223;BME280;5668;52.012;8.724;2022-12-29T08:51:03;98816.56;;;11.81;98.03
11223;BME280;5668;52.012;8.724;2022-12-29T08:53:30;98833.13;;;11.80;98.14
11223;BME280;5668;52.012;8.724;2022-12-29T08:56:01;98826.31;;;11.79;97.71
11223;BME280;5668;52.012;8.724;2022-12-29T08:58:29;98821.13;;;11.79;98.15
11223;BME280;5668;52.012;8.724;2022-12-29T09:00:57;98832.84;;;11.83;98.23
11223;BME280;5668;52.012;8.724;2022-12-29T09:03:27;98832.38;;;11.88;98.08
11223;BME280;5668;52.012;8.724;2022-12-29T09:05:57;98839.53;;;11.86;98.65
11223;BME280;5668;52.012;8.724;2022-12-29T09:08:24;98855.31;;;11.84;98.69
11223;BME280;5668;52.012;8.724;2022-12-29T09:10:52;98855.25;;;11.76;98.87
11223;BME280;5668;52.012;8.724;2022-12-29T09:13:19;98852.53;;;11.68;99.83
11223;BME280;5668;52.012;8.724;2022-12-29T09:15:47;98851.56;;;11.69;99.89
11223;BME280;5668;52.012;8.724;2022-12-29T09:18:15;98850.59;;;11.70;99.71
11223;BME280;5668;52.012;8.724;2022-12-29T09:20:42;98844.44;;;11.71;99.92
11223;BME280;5668;52.012;8.724;2022-12-29T09:23:11;98843.47;;;11.72;100.00
11223;BME280;5668;52.012;8.724;2022-12-29T09:25:38;98842.72;;;11.62;99.46
11223;BME280;5668;52.012;8.724;2022-12-29T09:28:05;98855.81;;;11.52;99.37
11223;BME280;5668;52.012;8.724;2022-12-29T09:30:33;98862.94;;;11.50;99.55
11223;BME280;5668;52.012;8.724;2022-12-29T09:33:01;98851.16;;;11.56;99.33
11223;BME280;5668;52.012;8.724;2022-12-29T09:35:28;98852.78;;;11.57;99.06
11223;BME280;5668;52.012;8.724;2022-12-29T09:37:55;98845.63;;;11.59;98.50
11223;BME280;5668;52.012;8.724;2022-12-29T09:40:28;98854.63;;;11.64;98.43
11223;BME280;5668;52.012;8.724;2022-12-29T09:43:14;98855.47;;;11.65;98.73
11223;BME280;5668;52.012;8.724;2022-12-29T09:45:47;98851.56;;;11.69;98.54
11223;BME280;5668;52.012;8.724;2022-12-29T09:48:25;98862.38;;;11.74;98.21
11223;BME280;5668;52.012;8.724;2022-12-29T09:50:57;98866.63;;;11.75;97.93
11223;BME280;5668;52.012;8.724;2022-12-29T09:53:31;98869.31;;;11.74;97.45
11223;BME280;5668;52.012;8.724;2022-12-29T09:56:13;98871.81;;;11.75;97.65
11223;BME280;5668;52.012;8.724;2022-12-29T09:58:47;98875.09;;;11.77;96.96
11223;BME280;5668;52.012;8.724;2022-12-29T10:01:30;98880.31;;;11.77;95.58
11223;BME280;5668;52.012;8.724;2022-12-29T10:03:59;98869.88;;;11.77;96.00
11223;BME280;5668;52.012;8.724;2022-12-29T10:06:33;98863.31;;;11.73;95.97
11223;BME280;5668;52.012;8.724;2022-12-29T10:09:11;98868.69;;;11.72;96.49
11223;BME280;5668;52.012;8.724;2022-12-29T10:11:54;98864.44;;;11.71;96.96
11223;BME280;5668;52.012;8.724;2022-12-29T10:14:44;98876.50;;;11.72;96.62
11223;BME280;5668;52.012;8.724;2022-12-29T10:17:24;98882.50;;;11.72;97.29
11223;BME280;5668;52.012;8.724;2022-12-29T10:20:12;98872.63;;;11.76;96.73
11223;BME280;5668;52.012;8.724;2022-12-29T10:22:53;98863.88;;;11.77;97.00
11223;BME280;5668;52.012;8.724;2022-12-29T10:25:26;98874.28;;;11.77;96.64
11223;BME280;5668;52.012;8.724;2022-12-29T10:28:00;98878.13;;;11.73;97.15
11223;BME280;5668;52.012;8.724;2022-12-29T10:30:32;98864.97;;;11.74;96.95
11223;BME280;5668;52.012;8.724;2022-12-29T10:33:05;98868.50;;;11.73;97.19
11223;BME280;5668;52.012;8.724;2022-12-29T10:35:36;98864.13;;;11.74;96.45
11223;BME280;5668;52.012;8.724;2022-12-29T10:38:15;98865.13;;;11.73;96.62
11223;BME280;5668;52.012;8.724;2022-12-29T10:40:53;98866.72;;;11.74;95.75
11223;BME280;5668;52.012;8.724;2022-12-29T10:43:28;98868.81;;;11.70;94.88
11223;BME280;5668;52.012;8.724;2022-12-29T10:45:59;98875.66;;;11.71;94.59
11223;BME280;5668;52.012;8.724;2022-12-29T10:48:31;98870.19;;;11.74;93.60
11223;BME280;5668;52.012;8.724;2022-12-29T10:51:00;98872.50;;;11.77;93.06
11223;BME280;5668;52.012;8.724;2022-12-29T10:53:36;98869.28;;;11.83;93.17
11223;BME280;5668;52.012;8.724;2022-12-29T10:56:14;98866.38;;;11.86;93.76
11223;BME280;5668;52.012;8.724;2022-12-29T10:58:47;98866.47;;;11.94;93.56
11223;BME280;5668;52.012;8.724;2022-12-29T11:01:16;98868.06;;;11.95;92.67
11223;BME280;5668;52.012;8.724;2022-12-29T11:03:54;98863.03;;;11.94;91.04
11223;BME280;5668;52.012;8.724;2022-12-29T11:06:29;98855.22;;;11.94;90.88
11223;BME280;5668;52.012;8.724;2022-12-29T11:08:58;98849.81;;;11.87;89.32
11223;BME280;5668;52.012;8.724;2022-12-29T11:11:33;98844.00;;;11.93;87.87
11223;BME280;5668;52.012;8.724;2022-12-29T11:14:11;98847.22;;;11.95;87.57
11223;BME280;5668;52.012;8.724;2022-12-29T11:16:40;98853.44;;;11.94;87.69
11223;BME280;5668;52.012;8.724;2022-12-29T11:19:21;98849.19;;;11.93;87.62
11223;BME280;5668;52.012;8.724;2022-12-29T11:21:53;98850.84;;;11.94;87.82
11223;BME280;5668;52.012;8.724;2022-12-29T11:24:25;98854.41;;;11.93;87.39
11223;BME280;5668;52.012;8.724;2022-12-29T11:26:54;98863.84;;;11.94;86.86
11223;BME280;5668;52.012;8.724;2022-12-29T11:29:27;98861.41;;;11.93;86.37
11223;BME280;5668;52.012;8.724;2022-12-29T11:31:56;98855.03;;;11.95;86.71
11223;BME280;5668;52.012;8.724;2022-12-29T11:34:26;98857.66;;;11.95;86.47
11223;BME280;5668;52.012;8.724;2022-12-29T11:39:33;98868.31;;;12.02;86.48
11223;BME280;5668;52.012;8.724;2022-12-29T11:42:03;98863.09;;;12.02;86.71
11223;BME280;5668;52.012;8.724;2022-12-29T11:44:41;98867.97;;;12.05;86.59
11223;BME280;5668;52.012;8.724;2022-12-29T11:47:14;98879.53;;;12.02;86.05
11223;BME280;5668;52.012;8.724;2022-12-29T11:49:53;98884.75;;;12.02;86.66
11223;BME280;5668;52.012;8.724;2022-12-29T11:52:33;98886.00;;;11.98;85.55
11223;BME280;5668;52.012;8.724;2022-12-29T11:55:06;98876.56;;;11.97;86.16
11223;BME280;5668;52.012;8.724;2022-12-29T11:57:48;98880.94;;;11.97;85.35
11223;BME280;5668;52.012;8.724;2022-12-29T12:00:20;98879.16;;;11.97;85.51
11223;BME280;5668;52.012;8.724;2022-12-29T12:03:03;98878.72;;;12.02;84.99
11223;BME280;5668;52.012;8.724;2022-12-29T12:05:45;98874.75;;;11.98;84.79
11223;BME280;5668;52.012;8.724;2022-12-29T12:08:38;98874.91;;;11.96;83.91
11223;BME280;5668;52.012;8.724;2022-12-29T12:11:12;98874.75;;;11.98;83.76
11223;BME280;5668;52.012;8.724;2022-12-29T12:13:58;98874.91;;;11.96;83.02
11223;BME280;5668;52.012;8.724;2022-12-29T12:16:33;98877.69;;;11.95;82.40
11223;BME280;5668;52.012;8.724;2022-12-29T12:19:12;98876.56;;;11.97;82.59
11223;BME280;5668;52.012;8.724;2022-12-29T12:21:43;98879.00;;;11.99;82.98
11223;BME280;5668;52.012;8.724;2022-12-29T12:24:29;98880.66;;;12.00;82.39
11223;BME280;5668;52.012;8.724;2022-12-29T12:27:08;98880.78;;;11.98;82.49
11223;BME280;5668;52.012;8.724;2022-12-29T12:29:41;98887.28;;;11.94;82.96
11223;BME280;5668;52.012;8.724;2022-12-29T12:32:16;98885.19;;;11.98;82.09
11223;BME280;5668;52.012;8.724;2022-12-29T12:34:47;98893.13;;;11.96;82.09
11223;BME280;5668;52.012;8.724;2022-12-29T12:37:38;98897.69;;;11.94;82.47
11223;BME280;5668;52.012;8.724;2022-12-29T12:40:43;98899.63;;;11.92;81.45
11223;BME280;5668;52.012;8.724;2022-12-29T12:43:34;98907.72;;;11.89;82.33
11223;BME280;5668;52.012;8.724;2022-12-29T12:46:42;98917.50;;;11.87;82.10
11223;BME280;5668;52.012;8.724;2022-12-29T12:49:33;98916.88;;;11.93;81.92
11223;BME280;5668;52.012;8.724;2022-12-29T12:52:14;98903.06;;;11.93;82.22
11223;BME280;5668;52.012;8.724;2022-12-29T12:55:00;98922.09;;;11.93;82.35
11223;BME280;5668;52.012;8.724;2022-12-29T12:57:45;98917.69;;;11.94;81.93
11223;BME280;5668;52.012;8.724;2022-12-29T13:00:23;98927.94;;;11.95;81.65
11223;BME280;5668;52.012;8.724;2022-12-29T13:03:03;98930.53;;;11.95;81.52
11223;BME280;5668;52.012;8.724;2022-12-29T13:05:43;98930.03;;;11.92;82.07
11223;BME280;5668;52.012;8.724;2022-12-29T13:09:06;98944.84;;;11.91;81.31
11223;BME280;5668;52.012;8.724;2022-12-29T13:12:01;98956.22;;;11.90;82.70
11223;BME280;5668;52.012;8.724;2022-12-29T13:14:42;98950.88;;;11.92;82.44
11223;BME280;5668;52.012;8.724;2022-12-29T13:17:17;98954.28;;;11.92;82.19
11223;BME280;5668;52.012;8.724;2022-12-29T13:19:53;98959.13;;;11.87;81.76
11223;BME280;5668;52.012;8.724;2022-12-29T13:22:30;98970.50;;;11.86;81.98
11223;BME280;5668;52.012;8.724;2022-12-29T13:25:15;98972.28;;;11.86;81.71
11223;BME280;5668;52.012;8.724;2022-12-29T13:27:51;98969.47;;;11.79;82.73
11223;BME280;5668;52.012;8.724;2022-12-29T13:30:27;98968.78;;;11.77;82.99
11223;BME280;5668;52.012;8.724;2022-12-29T13:33:15;98982.63;;;11.78;82.10
11223;BME280;5668;52.012;8.724;2022-12-29T13:35:56;98974.97;;;11.76;82.32
11223;BME280;5668;52.012;8.724;2022-12-29T13:38:32;98981.94;;;11.76;83.08
11223;BME280;5668;52.012;8.724;2022-12-29T13:41:04;98977.03;;;11.73;83.31
11223;BME280;5668;52.012;8.724;2022-12-29T13:43:37;98983.72;;;11.75;83.19
11223;BME280;5668;52.012;8.724;2022-12-29T13:46:09;98990.19;;;11.71;82.95
11223;BME280;5668;52.012;8.724;2022-12-29T13:48:44;98988.22;;;11.73;82.95
11223;BME280;5668;52.012;8.724;2022-12-29T13:51:16;98988.53;;;11.70;83.22
11223;BME280;5668;52.012;8.724;2022-12-29T13:54:14;99008.44;;;11.61;82.53
11223;BME280;5668;52.012;8.724;2022-12-29T13:56:49;99008.59;;;11.60;83.07
11223;BME280;5668;52.012;8.724;2022-12-29T13:59:24;99015.16;;;11.64;83.58